Time,TemperatureF,DewpointF,PressureIn,WindDirection,WindDirectionDegrees,WindSpeedMPH,WindSpeedGustMPH,Humidity,HourlyPrecipIn,Conditions,Clouds,dailyrainin,SoftwareType,DateUTC
2013-02-15 00:00:00,15.1,9.2,30.22,SSW,203,0.2,0.2,77,0.00,,,0.00,WUHU216HW,2013-02-15 06:00:00,
2013-02-15 00:05:00,15.1,9.2,30.22,SSW,203,0.2,0.2,77,0.00,,,0.00,WUHU216HW,2013-02-15 06:05:00,
2013-02-15 00:30:00,14.0,8.1,30.22,SSW,203,1.1,1.1,77,0.00,,,0.00,WUHU216HW,2013-02-15 06:30:00,
2013-02-15 00:35:00,14.0,8.1,30.22,SSW,203,1.1,1.1,77,0.00,,,0.00,WUHU216HW,2013-02-15 06:35:00,
2013-02-15 01:00:00,12.6,6.7,30.22,SSW,203,0.2,0.2,77,0.00,,,0.00,WUHU216HW,2013-02-15 07:00:00,
2013-02-15 01:05:00,12.6,6.7,30.22,SSW,203,0.2,0.2,77,0.00,,,0.00,WUHU216HW,2013-02-15 07:05:00,
2013-02-15 01:30:00,11.0,5.4,30.22,SSW,203,0.0,0.0,78,0.00,,,0.00,WUHU216HW,2013-02-15 07:30:00,
2013-02-15 01:35:00,11.0,5.4,30.22,SSW,203,0.0,0.0,78,0.00,,,0.00,WUHU216HW,2013-02-15 07:35:00,
2013-02-15 02:00:00,9.7,4.5,30.23,SSW,203,0.0,0.0,79,0.00,,,0.00,WUHU216HW,2013-02-15 08:00:00,
2013-02-15 02:05:00,9.7,4.5,30.23,SSW,203,0.0,0.0,79,0.00,,,0.00,WUHU216HW,2013-02-15 08:05:00,
2013-02-15 02:30:00,9.0,3.8,30.23,SSW,203,0.4,0.4,79,0.00,,,0.00,WUHU216HW,2013-02-15 08:30:00,
2013-02-15 02:35:00,9.0,3.8,30.23,SSW,203,0.4,0.4,79,0.00,,,0.00,WUHU216HW,2013-02-15 08:35:00,
2013-02-15 03:00:00,9.4,4.4,30.24,SSW,203,1.6,1.6,80,0.00,,,0.00,WUHU216HW,2013-02-15 09:00:00,
2013-02-15 03:05:00,9.4,4.4,30.24,SSW,203,1.6,1.6,80,0.00,,,0.00,WUHU216HW,2013-02-15 09:05:00,
2013-02-15 03:30:00,8.8,3.7,30.23,SSW,203,0.9,0.9,79,0.00,,,0.00,WUHU216HW,2013-02-15 09:30:00,
2013-02-15 03:35:00,8.8,3.7,30.23,SSW,203,0.9,0.9,79,0.00,,,0.00,WUHU216HW,2013-02-15 09:35:00,
2013-02-15 04:00:00,7.6,2.4,30.24,SSW,203,0.2,0.2,79,0.00,,,0.00,WUHU216HW,2013-02-15 10:00:00,
2013-02-15 04:05:00,7.6,2.4,30.24,SSW,203,0.2,0.2,79,0.00,,,0.00,WUHU216HW,2013-02-15 10:05:00,
2013-02-15 04:10:00,7.6,2.4,30.24,SSW,203,0.2,0.2,79,0.00,,,0.00,WUHU216HW,2013-02-15 10:10:00,
2013-02-15 04:30:00,6.7,1.8,30.25,SSW,203,0.2,0.2,80,0.00,,,0.00,WUHU216HW,2013-02-15 10:30:00,
2013-02-15 04:35:00,6.7,1.8,30.25,SSW,203,0.2,0.2,80,0.00,,,0.00,WUHU216HW,2013-02-15 10:35:00,
2013-02-15 05:00:00,6.7,1.8,30.26,SSW,203,0.4,0.4,80,0.00,,,0.00,WUHU216HW,2013-02-15 11:00:00,
2013-02-15 05:05:00,6.7,1.8,30.26,SSW,203,0.4,0.4,80,0.00,,,0.00,WUHU216HW,2013-02-15 11:05:00,
2013-02-15 05:10:00,6.7,1.8,30.26,SSW,203,0.4,0.4,80,0.00,,,0.00,WUHU216HW,2013-02-15 11:10:00,
2013-02-15 05:30:00,7.6,2.7,30.26,SSW,203,0.4,0.4,80,0.00,,,0.00,WUHU216HW,2013-02-15 11:30:00,
2013-02-15 05:35:00,7.6,2.7,30.26,SSW,203,0.4,0.4,80,0.00,,,0.00,WUHU216HW,2013-02-15 11:35:00,
2013-02-15 06:00:00,7.9,3.1,30.27,SSW,203,0.0,0.0,80,0.00,,,0.00,WUHU216HW,2013-02-15 12:00:00,
2013-02-15 06:05:00,7.9,3.1,30.27,SSW,203,0.0,0.0,80,0.00,,,0.00,WUHU216HW,2013-02-15 12:05:00,
2013-02-15 06:10:00,7.9,3.1,30.27,SSW,203,0.0,0.0,80,0.00,,,0.00,WUHU216HW,2013-02-15 12:10:00,
2013-02-15 06:30:00,7.6,2.7,30.28,SSW,203,0.0,0.0,80,0.00,,,0.00,WUHU216HW,2013-02-15 12:30:00,
2013-02-15 06:35:00,7.6,2.7,30.28,SSW,203,0.0,0.0,80,0.00,,,0.00,WUHU216HW,2013-02-15 12:35:00,
2013-02-15 07:00:00,7.4,2.5,30.28,SSW,203,0.0,0.0,80,0.00,,,0.00,WUHU216HW,2013-02-15 13:00:00,
2013-02-15 07:05:00,7.4,2.5,30.28,SSW,203,0.0,0.0,80,0.00,,,0.00,WUHU216HW,2013-02-15 13:05:00,
2013-02-15 07:10:00,7.4,2.5,30.28,SSW,203,0.0,0.0,80,0.00,,,0.00,WUHU216HW,2013-02-15 13:10:00,
2013-02-15 07:30:00,7.7,2.9,30.29,SSW,203,0.0,0.0,80,0.00,,,0.00,WUHU216HW,2013-02-15 13:30:00,
2013-02-15 07:35:00,7.7,2.9,30.29,SSW,203,0.0,0.0,80,0.00,,,0.00,WUHU216HW,2013-02-15 13:35:00,
2013-02-15 08:00:00,9.7,4.8,30.30,SSW,203,0.4,0.4,80,0.00,,,0.00,WUHU216HW,2013-02-15 14:00:00,
2013-02-15 08:05:00,9.7,4.8,30.30,SSW,203,0.4,0.4,80,0.00,,,0.00,WUHU216HW,2013-02-15 14:05:00,
2013-02-15 08:30:00,11.7,6.9,30.31,SSW,203,2.2,2.2,81,0.00,,,0.00,WUHU216HW,2013-02-15 14:30:00,
2013-02-15 08:35:00,11.7,6.9,30.31,SSW,203,2.2,2.2,81,0.00,,,0.00,WUHU216HW,2013-02-15 14:35:00,
2013-02-15 09:00:00,14.6,8.9,30.32,SSW,203,2.7,2.7,78,0.00,,,0.00,WUHU216HW,2013-02-15 15:00:00,
2013-02-15 09:05:00,14.6,8.9,30.32,SSW,203,2.7,2.7,78,0.00,,,0.00,WUHU216HW,2013-02-15 15:05:00,
2013-02-15 09:30:00,16.4,10.1,30.32,SSW,203,4.3,4.3,76,0.00,,,0.00,WUHU216HW,2013-02-15 15:30:00,
2013-02-15 09:35:00,16.4,10.1,30.32,SSW,203,4.3,4.3,76,0.00,,,0.00,WUHU216HW,2013-02-15 15:35:00,
2013-02-15 10:00:00,19.1,10.8,30.32,SSW,203,5.6,5.6,70,0.00,,,0.00,WUHU216HW,2013-02-15 16:00:00,
2013-02-15 10:05:00,19.1,10.8,30.32,SSW,203,5.6,5.6,70,0.00,,,0.00,WUHU216HW,2013-02-15 16:05:00,
2013-02-15 10:30:00,19.1,10.5,30.32,SSW,203,0.0,0.0,69,0.00,,,0.00,WUHU216HW,2013-02-15 16:30:00,
2013-02-15 10:35:00,19.1,10.5,30.32,SSW,203,0.0,0.0,69,0.00,,,0.00,WUHU216HW,2013-02-15 16:35:00,
2013-02-15 11:00:00,20.5,10.9,30.32,SSW,203,0.7,0.7,66,0.00,,,0.00,WUHU216HW,2013-02-15 17:00:00,
2013-02-15 11:05:00,20.5,10.9,30.32,SSW,203,0.7,0.7,66,0.00,,,0.00,WUHU216HW,2013-02-15 17:05:00,
2013-02-15 11:30:00,21.6,11.6,30.31,SSW,203,1.1,1.1,65,0.00,,,0.00,WUHU216HW,2013-02-15 17:30:00,
2013-02-15 11:35:00,21.6,11.6,30.31,SSW,203,1.1,1.1,65,0.00,,,0.00,WUHU216HW,2013-02-15 17:35:00,
2013-02-15 12:00:00,22.1,10.4,30.31,SSW,203,1.3,1.3,60,0.00,,,0.00,WUHU216HW,2013-02-15 18:00:00,
2013-02-15 12:05:00,22.1,10.4,30.31,SSW,203,1.3,1.3,60,0.00,,,0.00,WUHU216HW,2013-02-15 18:05:00,
2013-02-15 12:30:00,20.7,9.7,30.31,SSW,203,3.8,3.8,62,0.00,,,0.00,WUHU216HW,2013-02-15 18:30:00,
2013-02-15 12:35:00,20.7,9.7,30.31,SSW,203,3.8,3.8,62,0.00,,,0.00,WUHU216HW,2013-02-15 18:35:00,
2013-02-15 13:00:00,21.2,9.9,30.30,SSW,203,2.5,2.5,61,0.00,,,0.00,WUHU216HW,2013-02-15 19:00:00,
2013-02-15 13:05:00,21.2,9.9,30.30,SSW,203,2.5,2.5,61,0.00,,,0.00,WUHU216HW,2013-02-15 19:05:00,
2013-02-15 13:30:00,20.5,8.8,30.30,SSW,203,1.6,1.6,60,0.00,,,0.00,WUHU216HW,2013-02-15 19:30:00,
2013-02-15 13:35:00,20.5,8.8,30.30,SSW,203,1.6,1.6,60,0.00,,,0.00,WUHU216HW,2013-02-15 19:35:00,
2013-02-15 14:00:00,19.8,8.5,30.30,SSW,203,1.8,1.8,61,0.00,,,0.00,WUHU216HW,2013-02-15 20:00:00,
2013-02-15 14:05:00,19.8,8.5,30.30,SSW,203,1.8,1.8,61,0.00,,,0.00,WUHU216HW,2013-02-15 20:05:00,
2013-02-15 14:30:00,20.5,8.4,30.30,SSW,203,1.8,1.8,59,0.00,,,0.00,WUHU216HW,2013-02-15 20:30:00,
2013-02-15 14:35:00,20.5,8.4,30.30,SSW,203,1.8,1.8,59,0.00,,,0.00,WUHU216HW,2013-02-15 20:35:00,
2013-02-15 15:00:00,19.1,7.7,30.31,SSW,203,3.1,3.1,61,0.00,,,0.00,WUHU216HW,2013-02-15 21:00:00,
2013-02-15 15:05:00,19.1,7.7,30.31,SSW,203,3.1,3.1,61,0.00,,,0.00,WUHU216HW,2013-02-15 21:05:00,
2013-02-15 15:10:00,19.1,7.7,30.31,SSW,203,3.1,3.1,61,0.00,,,0.00,WUHU216HW,2013-02-15 21:10:00,
2013-02-15 15:30:00,17.8,6.7,30.32,SSW,203,3.1,3.1,61,0.00,,,0.00,WUHU216HW,2013-02-15 21:30:00,
2013-02-15 15:35:00,17.8,6.7,30.32,SSW,203,3.1,3.1,61,0.00,,,0.00,WUHU216HW,2013-02-15 21:35:00,
2013-02-15 16:00:00,16.4,5.2,30.33,SSW,203,1.8,1.8,61,0.00,,,0.00,WUHU216HW,2013-02-15 22:00:00,
2013-02-15 16:05:00,16.4,5.2,30.33,SSW,203,1.8,1.8,61,0.00,,,0.00,WUHU216HW,2013-02-15 22:05:00,
2013-02-15 16:10:00,16.4,5.2,30.33,SSW,203,1.8,1.8,61,0.00,,,0.00,WUHU216HW,2013-02-15 22:10:00,
2013-02-15 16:30:00,14.8,5.0,30.34,SSW,203,0.7,0.7,65,0.00,,,0.00,WUHU216HW,2013-02-15 22:30:00,
2013-02-15 16:35:00,14.8,5.0,30.34,SSW,203,0.7,0.7,65,0.00,,,0.00,WUHU216HW,2013-02-15 22:35:00,
2013-02-15 17:00:00,13.3,4.4,30.35,SSW,203,0.4,0.4,67,0.00,,,0.00,WUHU216HW,2013-02-15 23:00:00,
2013-02-15 17:05:00,13.3,4.4,30.35,SSW,203,0.4,0.4,67,0.00,,,0.00,WUHU216HW,2013-02-15 23:05:00,
2013-02-15 17:10:00,13.3,4.4,30.35,SSW,203,0.4,0.4,67,0.00,,,0.00,WUHU216HW,2013-02-15 23:10:00,
2013-02-15 17:30:00,11.7,3.2,30.36,SSW,203,0.4,0.4,68,0.00,,,0.00,WUHU216HW,2013-02-15 23:30:00,
2013-02-15 17:35:00,11.7,3.2,30.36,SSW,203,0.4,0.4,68,0.00,,,0.00,WUHU216HW,2013-02-15 23:35:00,
2013-02-15 18:00:00,10.1,1.5,30.36,SSW,203,0.2,0.2,68,0.00,,,0.00,WUHU216HW,2013-02-16 00:00:00,
2013-02-15 18:05:00,10.1,1.5,30.36,SSW,203,0.2,0.2,68,0.00,,,0.00,WUHU216HW,2013-02-16 00:05:00,
2013-02-15 18:10:00,10.1,1.5,30.36,SSW,203,0.2,0.2,68,0.00,,,0.00,WUHU216HW,2013-02-16 00:10:00,
2013-02-15 18:30:00,9.4,1.2,30.36,SSW,203,0.0,0.0,69,0.00,,,0.00,WUHU216HW,2013-02-16 00:30:00,
2013-02-15 18:35:00,9.4,1.2,30.36,SSW,203,0.0,0.0,69,0.00,,,0.00,WUHU216HW,2013-02-16 00:35:00,
2013-02-15 19:00:00,8.3,0.5,30.36,SSW,203,0.0,0.0,70,0.00,,,0.00,WUHU216HW,2013-02-16 01:00:00,
2013-02-15 19:05:00,8.3,0.5,30.36,SSW,203,0.0,0.0,70,0.00,,,0.00,WUHU216HW,2013-02-16 01:05:00,
2013-02-15 19:30:00,6.7,-1.1,30.36,SSW,203,0.0,0.0,70,0.00,,,0.00,WUHU216HW,2013-02-16 01:30:00,
2013-02-15 19:35:00,6.7,-1.1,30.36,SSW,203,0.0,0.0,70,0.00,,,0.00,WUHU216HW,2013-02-16 01:35:00,
2013-02-15 20:00:00,5.4,-2.3,30.35,SSW,203,0.0,0.0,70,0.00,,,0.00,WUHU216HW,2013-02-16 02:00:00,
2013-02-15 20:05:00,5.4,-2.3,30.35,SSW,203,0.0,0.0,70,0.00,,,0.00,WUHU216HW,2013-02-16 02:05:00,
2013-02-15 20:30:00,3.2,-4.3,30.35,SSW,203,0.0,0.0,70,0.00,,,0.00,WUHU216HW,2013-02-16 02:30:00,
2013-02-15 20:35:00,3.2,-4.3,30.35,SSW,203,0.0,0.0,70,0.00,,,0.00,WUHU216HW,2013-02-16 02:35:00,
2013-02-15 21:00:00,1.8,-5.5,30.35,SSW,203,0.0,0.0,71,0.00,,,0.00,WUHU216HW,2013-02-16 03:00:00,
2013-02-15 21:05:00,1.8,-5.5,30.35,SSW,203,0.0,0.0,71,0.00,,,0.00,WUHU216HW,2013-02-16 03:05:00,
2013-02-15 21:30:00,0.5,-6.5,30.35,SSW,203,0.0,0.0,72,0.00,,,0.00,WUHU216HW,2013-02-16 03:30:00,
2013-02-15 21:35:00,0.5,-6.5,30.35,SSW,203,0.0,0.0,72,0.00,,,0.00,WUHU216HW,2013-02-16 03:35:00,
2013-02-15 22:00:00,-0.9,-8.1,30.34,SSW,203,0.0,0.0,71,0.00,,,0.00,WUHU216HW,2013-02-16 04:00:00,
2013-02-15 22:05:00,-0.9,-8.1,30.34,SSW,203,0.0,0.0,71,0.00,,,0.00,WUHU216HW,2013-02-16 04:05:00,